createdAt,value
2023-04-05T00:00:44.413Z,10.13
2023-04-05T00:03:11.869Z,11.73
2023-04-05T00:05:39.693Z,9.77
2023-04-05T00:08:13.496Z,10.75
2023-04-05T00:10:41.281Z,11.93
2023-04-05T00:13:08.957Z,9.40
2023-04-05T00:15:36.204Z,14.27
2023-04-05T00:18:04.074Z,9.57
2023-04-05T00:20:31.395Z,11.48
2023-04-05T00:22:58.594Z,14.48
2023-04-05T00:25:26.218Z,15.02
2023-04-05T00:27:53.460Z,12.27
2023-04-05T00:30:21.326Z,14.27
2023-04-05T00:32:51.985Z,16.92
2023-04-05T00:35:19.378Z,14.10
2023-04-05T00:37:46.639Z,10.85
2023-04-05T00:40:14.007Z,11.20
2023-04-05T00:42:41.241Z,14.55
2023-04-05T00:45:09.104Z,10.98
2023-04-05T00:47:37.049Z,12.50
2023-04-05T00:50:04.428Z,10.85
2023-04-05T00:52:32.290Z,15.00
2023-04-05T00:54:59.792Z,12.77
2023-04-05T00:57:30.103Z,11.32
2023-04-05T00:59:59.780Z,12.93
2023-04-05T01:02:34.387Z,13.88
2023-04-05T01:05:09.800Z,13.95
2023-04-05T01:07:43.660Z,12.32
2023-04-05T01:10:12.622Z,14.18
2023-04-05T01:12:40.032Z,15.07
2023-04-05T01:15:07.611Z,12.77
2023-04-05T01:17:39.239Z,14.45
2023-04-05T01:20:11.743Z,11.02
2023-04-05T01:22:58.332Z,11.60
2023-04-05T01:25:37.021Z,10.43
2023-04-05T01:28:23.962Z,9.65
2023-04-05T01:31:08.475Z,11.82
2023-04-05T01:33:45.093Z,12.18
2023-04-05T01:36:24.838Z,15.90
2023-04-05T01:38:53.286Z,12.73
2023-04-05T01:41:21.505Z,11.27
2023-04-05T01:43:49.033Z,17.20
2023-04-05T01:46:16.528Z,13.98
2023-04-05T01:48:43.871Z,13.25
2023-04-05T01:51:11.158Z,13.68
2023-04-05T01:53:38.832Z,14.65
2023-04-05T01:56:07.383Z,13.02
2023-04-05T01:58:37.591Z,13.40
2023-04-05T02:01:04.902Z,12.27
2023-04-05T02:03:32.407Z,12.63
2023-04-05T02:05:59.753Z,12.00
2023-04-05T02:08:27.005Z,14.88
2023-04-05T02:10:54.787Z,13.80
2023-04-05T02:13:26.160Z,13.63
2023-04-05T02:15:53.413Z,11.32
2023-04-05T02:18:22.197Z,11.10
2023-04-05T02:20:52.584Z,13.30
2023-04-05T02:23:20.967Z,12.65
2023-04-05T02:25:48.298Z,14.07
2023-04-05T02:28:15.791Z,16.70
2023-04-05T02:30:43.358Z,11.25
2023-04-05T02:33:11.070Z,13.73
2023-04-05T02:35:38.332Z,14.73
2023-04-05T02:38:07.043Z,13.88
2023-04-05T02:40:34.808Z,13.02
2023-04-05T02:43:02.137Z,10.90
2023-04-05T02:45:29.437Z,12.73
2023-04-05T02:47:59.211Z,14.25
2023-04-05T02:50:30.669Z,14.00
2023-04-05T02:52:58.000Z,12.63
2023-04-05T02:55:29.397Z,12.02
2023-04-05T02:58:00.711Z,13.40
2023-04-05T03:00:38.260Z,14.95
2023-04-05T03:03:06.131Z,16.65
2023-04-05T03:05:37.175Z,14.18
2023-04-05T03:08:05.704Z,13.63
2023-04-05T03:10:36.220Z,15.82
2023-04-05T03:13:14.758Z,13.32
2023-04-05T03:15:42.968Z,12.35
2023-04-05T03:18:13.584Z,14.40
2023-04-05T03:23:17.164Z,16.23
2023-04-05T03:25:46.353Z,17.90
2023-04-05T03:28:15.315Z,13.80
2023-04-05T03:30:45.889Z,12.95
2023-04-05T03:33:19.588Z,15.73
2023-04-05T03:35:50.373Z,13.88
2023-04-05T03:38:18.405Z,13.10
2023-04-05T03:40:55.259Z,15.98
2023-04-05T03:43:22.509Z,15.43
2023-04-05T03:45:49.900Z,15.02
2023-04-05T03:48:20.229Z,24.10
2023-04-05T03:50:49.203Z,14.32
2023-04-05T03:53:19.184Z,15.82
2023-04-05T03:55:50.348Z,14.90
2023-04-05T03:58:21.222Z,19.92
2023-04-05T04:00:48.800Z,17.23
2023-04-05T04:03:20.992Z,14.73
2023-04-05T04:05:51.621Z,19.65
2023-04-05T04:08:20.238Z,17.17
2023-04-05T04:10:47.542Z,19.08
2023-04-05T04:13:26.576Z,19.98
2023-04-05T04:16:01.580Z,19.02
2023-04-05T04:18:40.600Z,19.02
2023-04-05T04:21:26.494Z,18.95
2023-04-05T04:24:18.853Z,18.98
2023-04-05T04:26:49.577Z,18.83
2023-04-05T04:29:46.919Z,23.50
2023-04-05T04:32:52.167Z,18.88
2023-04-05T04:35:48.772Z,28.23
2023-04-05T04:38:35.301Z,34.72
2023-04-05T04:41:22.715Z,23.13
2023-04-05T04:44:28.277Z,32.67
2023-04-05T04:47:27.993Z,18.25
2023-04-05T04:50:19.897Z,22.60
2023-04-05T04:52:47.870Z,21.30
2023-04-05T04:55:15.159Z,24.77
2023-04-05T04:57:45.480Z,18.80
2023-04-05T05:00:14.926Z,19.10
2023-04-05T05:05:09.983Z,26.50
2023-04-05T05:07:37.944Z,20.65
2023-04-05T05:10:05.450Z,19.20
2023-04-05T05:12:32.932Z,24.40
2023-04-05T05:15:00.258Z,19.65
2023-04-05T05:17:27.540Z,25.42
2023-04-05T05:19:56.368Z,22.80
2023-04-05T05:22:23.688Z,26.13
2023-04-05T05:24:50.883Z,22.50
2023-04-05T05:27:18.156Z,21.90
2023-04-05T05:29:45.492Z,20.63
2023-04-05T05:32:15.833Z,20.98
2023-04-05T05:34:45.073Z,17.85
2023-04-05T05:39:46.937Z,21.58
2023-04-05T05:42:14.181Z,18.45
2023-04-05T05:44:41.512Z,16.85
2023-04-05T05:47:08.796Z,18.83
2023-04-05T05:49:36.006Z,18.75
2023-04-05T05:52:03.952Z,19.90
2023-04-05T05:54:31.607Z,19.00
2023-04-05T05:56:59.082Z,24.42
2023-04-05T05:59:26.378Z,23.10
2023-04-05T06:01:53.769Z,23.10
2023-04-05T06:04:21.161Z,20.52
2023-04-05T06:06:49.190Z,24.73
2023-04-05T06:09:16.508Z,26.67
2023-04-05T06:11:55.320Z,20.90
2023-04-05T06:14:24.095Z,25.35
2023-04-05T06:16:51.319Z,23.95
2023-04-05T06:19:18.546Z,24.73
2023-04-05T06:21:45.877Z,18.77
2023-04-05T06:24:13.141Z,18.08
2023-04-05T06:26:41.301Z,19.65
2023-04-05T06:29:08.666Z,15.65
2023-04-05T06:31:36.661Z,16.80
2023-04-05T06:34:04.148Z,19.27
2023-04-05T06:36:32.124Z,21.13
2023-04-05T06:38:59.902Z,14.98
2023-04-05T06:41:30.068Z,16.63
2023-04-05T06:43:57.312Z,18.13
2023-04-05T06:46:24.843Z,16.98
2023-04-05T06:48:52.630Z,18.20
2023-04-05T06:51:20.135Z,20.25
2023-04-05T06:53:47.438Z,16.02
2023-04-05T06:56:14.670Z,15.07
2023-04-05T06:58:42.019Z,15.68
2023-04-05T07:01:09.412Z,14.90
2023-04-05T07:03:36.945Z,13.07
2023-04-05T07:06:04.363Z,15.57
2023-04-05T07:08:32.648Z,13.80
2023-04-05T07:10:59.973Z,13.40
2023-04-05T07:13:27.397Z,14.85
2023-04-05T07:16:00.844Z,14.70
2023-04-05T07:18:28.525Z,13.65
2023-04-05T07:20:59.963Z,15.50
2023-04-05T07:23:30.496Z,17.95
2023-04-05T07:26:08.392Z,12.88
2023-04-05T07:28:36.512Z,12.60
2023-04-05T07:31:06.337Z,12.98
2023-04-05T07:33:34.065Z,15.38
2023-04-05T07:36:01.587Z,14.73
2023-04-05T07:38:30.145Z,16.45
2023-04-05T07:40:57.526Z,11.95
2023-04-05T07:43:25.844Z,12.55
2023-04-05T07:45:53.656Z,13.52
2023-04-05T07:48:21.401Z,12.80
2023-04-05T07:50:49.239Z,13.00
2023-04-05T07:53:16.908Z,15.98
2023-04-05T07:55:44.225Z,13.13
2023-04-05T07:58:11.532Z,15.95
2023-04-05T08:00:39.233Z,14.73
2023-04-05T08:03:07.096Z,13.55
2023-04-05T08:05:34.389Z,16.98
2023-04-05T08:08:01.701Z,14.90
2023-04-05T08:10:28.903Z,12.43
2023-04-05T08:12:56.138Z,12.05
2023-04-05T08:15:23.371Z,12.32
2023-04-05T08:17:50.714Z,13.93
2023-04-05T08:20:18.056Z,13.00
2023-04-05T08:22:45.397Z,11.65
2023-04-05T08:25:12.634Z,12.73
2023-04-05T08:27:39.903Z,12.27
2023-04-05T08:30:07.970Z,13.02
2023-04-05T08:32:35.851Z,10.57
2023-04-05T08:35:03.344Z,8.50
2023-04-05T08:37:34.344Z,9.82
2023-04-05T08:40:01.704Z,12.60
2023-04-05T08:42:42.905Z,11.40
2023-04-05T08:45:11.130Z,10.45
2023-04-05T08:47:41.499Z,9.68
2023-04-05T08:50:10.953Z,9.82
2023-04-05T08:52:39.103Z,10.30
2023-04-05T08:55:06.856Z,9.95
2023-04-05T08:57:35.220Z,8.27
2023-04-05T09:00:04.128Z,8.07
2023-04-05T09:02:32.765Z,11.00
2023-04-05T09:05:00.522Z,14.55
2023-04-05T09:07:31.454Z,10.98
2023-04-05T09:10:00.653Z,9.00
2023-04-05T09:14:55.570Z,9.82
2023-04-05T09:17:23.596Z,8.60
2023-04-05T09:19:51.027Z,8.18
2023-04-05T09:22:21.197Z,9.65
2023-04-05T09:24:48.546Z,8.73
2023-04-05T09:27:20.867Z,7.57
2023-04-05T09:29:56.554Z,10.93
2023-04-05T09:32:28.274Z,7.97
2023-04-05T09:34:55.803Z,10.05
2023-04-05T09:37:32.050Z,7.95
2023-04-05T09:40:04.141Z,11.52
2023-04-05T09:42:33.040Z,11.35
2023-04-05T09:45:05.774Z,10.07
2023-04-05T09:47:38.674Z,11.57
2023-04-05T09:50:14.687Z,10.73
2023-04-05T09:52:42.360Z,9.20
2023-04-05T09:55:10.370Z,12.60
2023-04-05T09:57:39.023Z,14.68
2023-04-05T10:00:06.919Z,10.35
2023-04-05T10:02:41.938Z,9.32
2023-04-05T10:05:15.464Z,8.32
2023-04-05T10:07:45.978Z,10.80
2023-04-05T10:10:13.423Z,10.38
2023-04-05T10:12:41.873Z,10.20
2023-04-05T10:15:11.086Z,8.95
2023-04-05T10:17:40.601Z,9.32
2023-04-05T10:20:07.873Z,10.18
2023-04-05T10:22:38.178Z,10.63
2023-04-05T10:25:10.651Z,11.80
2023-04-05T10:27:47.808Z,11.00
2023-04-05T10:30:16.096Z,9.57
2023-04-05T10:32:43.501Z,10.20
2023-04-05T10:35:16.622Z,9.00
2023-04-05T10:37:54.560Z,8.35
2023-04-05T10:40:22.649Z,11.63
2023-04-05T10:42:50.446Z,11.65
2023-04-05T10:45:23.255Z,10.27
2023-04-05T10:48:03.739Z,10.38
2023-04-05T10:50:31.155Z,10.82
2023-04-05T10:52:59.308Z,11.30
2023-04-05T10:55:26.968Z,11.63
2023-04-05T10:57:55.133Z,9.43
2023-04-05T11:00:23.010Z,10.07
2023-04-05T11:02:56.191Z,8.90
2023-04-05T11:05:34.423Z,10.23
2023-04-05T11:08:04.394Z,11.03
2023-04-05T11:10:32.805Z,10.70
2023-04-05T11:13:00.056Z,8.68
2023-04-05T11:15:30.519Z,10.48
2023-04-05T11:18:07.256Z,12.13
2023-04-05T11:20:55.975Z,11.35
2023-04-05T11:23:24.889Z,10.25
2023-04-05T11:25:57.723Z,10.60
2023-04-05T11:28:45.534Z,8.55
2023-04-05T11:31:20.469Z,10.45
2023-04-05T11:33:55.374Z,9.25
2023-04-05T11:36:34.019Z,9.32
2023-04-05T11:39:20.280Z,10.32
2023-04-05T11:41:48.679Z,8.23
2023-04-05T11:44:16.497Z,10.43
2023-04-05T11:46:44.195Z,9.55
2023-04-05T11:49:11.636Z,11.23
2023-04-05T11:51:42.542Z,11.18
2023-04-05T11:54:10.198Z,9.15
2023-04-05T11:56:37.827Z,9.60
2023-04-05T11:59:05.047Z,10.88
2023-04-05T12:01:32.578Z,12.82
2023-04-05T12:03:59.998Z,9.73
2023-04-05T12:06:27.471Z,11.38
2023-04-05T12:08:56.084Z,10.95
2023-04-05T12:11:31.826Z,11.07
2023-04-05T12:14:02.810Z,11.00
2023-04-05T12:16:30.331Z,11.40
2023-04-05T12:19:01.046Z,10.30
2023-04-05T12:21:28.526Z,12.70
2023-04-05T12:23:55.996Z,11.80
2023-04-05T12:26:23.665Z,12.18
2023-04-05T12:28:51.867Z,9.68
2023-04-05T12:31:19.201Z,8.17
2023-04-05T12:33:46.674Z,10.75
2023-04-05T12:36:15.673Z,10.35
2023-04-05T12:38:42.894Z,9.48
2023-04-05T12:41:10.367Z,10.23
2023-04-05T12:43:41.815Z,10.05
2023-04-05T12:46:18.671Z,8.45
2023-04-05T12:48:51.204Z,10.95
2023-04-05T12:51:18.587Z,9.55
2023-04-05T12:53:49.645Z,9.73
2023-04-05T12:56:16.983Z,11.63
2023-04-05T12:58:44.625Z,10.38
2023-04-05T13:01:12.858Z,9.23
2023-04-05T13:03:40.522Z,11.10
2023-04-05T13:06:08.017Z,10.48
2023-04-05T13:08:35.351Z,8.48
2023-04-05T13:11:02.690Z,7.90
2023-04-05T13:13:30.002Z,10.55
2023-04-05T13:15:57.284Z,12.15
2023-04-05T13:18:25.769Z,12.10
2023-04-05T13:20:53.088Z,8.57
2023-04-05T13:23:20.454Z,9.30
2023-04-05T13:25:47.953Z,10.68
2023-04-05T13:28:15.372Z,9.20
2023-04-05T13:30:42.691Z,9.32
2023-04-05T13:33:10.274Z,10.43
2023-04-05T13:35:37.729Z,9.05
2023-04-05T13:38:05.886Z,9.25
2023-04-05T13:40:33.361Z,11.07
2023-04-05T13:43:01.156Z,13.20
2023-04-05T13:45:29.170Z,10.55
2023-04-05T13:47:56.635Z,11.15
2023-04-05T13:50:24.062Z,12.35
2023-04-05T13:52:51.900Z,10.70
2023-04-05T13:55:19.202Z,11.38
2023-04-05T13:57:46.477Z,12.60
2023-04-05T14:00:14.693Z,10.98
2023-04-05T14:02:42.327Z,11.32
2023-04-05T14:05:09.816Z,9.88
2023-04-05T14:07:37.408Z,12.40
2023-04-05T14:10:06.579Z,13.18
2023-04-05T14:12:34.610Z,9.80
2023-04-05T14:15:01.985Z,12.43
2023-04-05T14:17:29.349Z,10.07
2023-04-05T14:19:56.734Z,18.63
2023-04-05T14:22:24.214Z,10.90
2023-04-05T14:24:51.626Z,10.77
2023-04-05T14:27:22.243Z,10.90
2023-04-05T14:29:52.496Z,12.88
2023-04-05T14:32:19.838Z,15.23
2023-04-05T14:34:47.216Z,13.68
2023-04-05T14:37:14.485Z,11.00
2023-04-05T14:39:41.805Z,10.55
2023-04-05T14:42:09.319Z,12.68
2023-04-05T14:44:36.642Z,14.05
2023-04-05T14:47:03.880Z,13.85
2023-04-05T14:49:31.330Z,12.52
2023-04-05T14:51:58.755Z,13.15
2023-04-05T14:54:26.060Z,14.50
2023-04-05T14:56:53.382Z,14.95
2023-04-05T14:59:20.976Z,12.50
2023-04-05T15:01:48.437Z,14.10
2023-04-05T15:04:15.747Z,14.02
2023-04-05T15:06:43.034Z,15.30
2023-04-05T15:09:10.285Z,13.18
2023-04-05T15:11:39.254Z,15.35
2023-04-05T15:14:08.593Z,14.68
2023-04-05T15:16:38.774Z,12.07
2023-04-05T15:19:06.384Z,15.75
2023-04-05T15:21:34.007Z,13.95
2023-04-05T15:24:02.299Z,16.77
2023-04-05T15:26:29.571Z,15.63
2023-04-05T15:28:56.821Z,15.75
2023-04-05T15:31:24.149Z,16.48
2023-04-05T15:33:51.374Z,13.02
2023-04-05T15:36:18.707Z,14.48
2023-04-05T15:38:46.341Z,14.98
2023-04-05T15:41:13.885Z,13.20
2023-04-05T15:43:41.258Z,13.65
2023-04-05T15:46:08.647Z,18.52
2023-04-05T15:48:36.035Z,15.00
2023-04-05T15:51:03.312Z,16.20
2023-04-05T15:53:30.831Z,18.08
2023-04-05T15:55:58.373Z,15.10
2023-04-05T15:58:25.843Z,18.80
2023-04-05T16:00:53.112Z,16.30
2023-04-05T16:03:20.496Z,14.95
2023-04-05T16:05:47.845Z,13.27
2023-04-05T16:08:15.182Z,15.23
2023-04-05T16:10:42.828Z,14.45
2023-04-05T16:13:11.162Z,15.65
2023-04-05T16:15:38.470Z,15.88
2023-04-05T16:18:05.824Z,17.75
2023-04-05T16:20:33.182Z,15.68
2023-04-05T16:23:00.419Z,19.90
2023-04-05T16:25:27.761Z,15.77
2023-04-05T16:27:55.036Z,18.17
2023-04-05T16:30:22.460Z,17.10
2023-04-05T16:32:53.239Z,18.35
2023-04-05T16:35:21.069Z,18.42
2023-04-05T16:37:48.440Z,18.08
2023-04-05T16:40:16.791Z,14.45
2023-04-05T16:42:44.028Z,24.80
2023-04-05T16:45:11.668Z,15.95
2023-04-05T16:47:39.424Z,18.83
2023-04-05T16:50:06.970Z,15.85
2023-04-05T16:52:34.295Z,17.50
2023-04-05T16:55:01.672Z,17.83
2023-04-05T16:57:29.010Z,14.68
2023-04-05T16:59:56.363Z,17.35
2023-04-05T17:02:23.643Z,18.85
2023-04-05T17:04:51.578Z,18.88
2023-04-05T17:07:18.864Z,18.58
2023-04-05T17:09:46.139Z,17.48
2023-04-05T17:12:13.721Z,20.95
2023-04-05T17:14:41.142Z,18.85
2023-04-05T17:17:08.501Z,18.65
2023-04-05T17:19:35.845Z,19.08
2023-04-05T17:22:03.145Z,20.63
2023-04-05T17:24:37.082Z,18.85
2023-04-05T17:27:06.770Z,17.52
2023-04-05T17:29:34.123Z,18.17
2023-04-05T17:32:01.506Z,21.65
2023-04-05T17:34:28.841Z,16.20
2023-04-05T17:36:56.537Z,23.48
2023-04-05T17:39:24.005Z,31.50
2023-04-05T17:41:54.669Z,30.52
2023-04-05T17:44:22.158Z,33.00
2023-04-05T17:47:01.242Z,35.75
2023-04-05T17:49:36.618Z,38.03
2023-04-05T17:52:09.093Z,33.03
2023-04-05T17:54:37.251Z,35.50
2023-04-05T17:57:14.823Z,35.08
2023-04-05T17:59:42.989Z,40.80
2023-04-05T18:02:13.774Z,39.95
2023-04-05T18:04:41.703Z,33.05
2023-04-05T18:07:09.301Z,36.55
2023-04-05T18:09:38.364Z,35.15
2023-04-05T18:12:06.036Z,37.38
2023-04-05T18:14:33.480Z,36.58
2023-04-05T18:17:01.880Z,38.80
2023-04-05T18:19:29.128Z,35.03
2023-04-05T18:21:56.463Z,40.90
2023-04-05T18:24:23.708Z,37.15
2023-04-05T18:26:51.465Z,39.38
2023-04-05T18:29:18.774Z,38.08
2023-04-05T18:31:46.283Z,39.63
2023-04-05T18:34:13.601Z,37.40
2023-04-05T18:36:41.119Z,43.03
2023-04-05T18:39:08.713Z,37.80
2023-04-05T18:41:36.325Z,38.30
2023-04-05T18:44:03.694Z,43.42
2023-04-05T18:46:31.097Z,41.40
2023-04-05T18:48:58.461Z,38.30
2023-04-05T18:51:27.225Z,37.85
2023-04-05T18:53:54.574Z,41.88
2023-04-05T18:56:22.049Z,41.05
2023-04-05T18:58:52.649Z,38.40
2023-04-05T19:01:20.765Z,40.78
2023-04-05T19:03:49.034Z,40.83
2023-04-05T19:06:16.668Z,37.00
2023-04-05T19:08:44.261Z,41.83
2023-04-05T19:11:13.893Z,43.75
2023-04-05T19:13:42.108Z,38.65
2023-04-05T19:16:09.649Z,38.03
2023-04-05T19:18:38.163Z,39.35
2023-04-05T19:21:05.654Z,42.67
2023-04-05T19:23:33.017Z,42.60
2023-04-05T19:26:00.335Z,42.40
2023-04-05T19:28:27.728Z,43.00
2023-04-05T19:30:55.233Z,42.90
2023-04-05T19:33:23.318Z,44.25
2023-04-05T19:35:51.224Z,41.50
2023-04-05T19:38:21.420Z,38.00
2023-04-05T19:40:48.720Z,40.33
2023-04-05T19:43:16.436Z,43.78
2023-04-05T19:45:43.745Z,38.90
2023-04-05T19:48:30.043Z,43.55
2023-04-05T19:50:57.804Z,43.25
2023-04-05T19:53:44.037Z,42.13
2023-04-05T19:56:13.070Z,44.20
2023-04-05T19:58:40.462Z,43.15
2023-04-05T20:01:08.154Z,47.33
2023-04-05T20:03:37.128Z,38.63
2023-04-05T20:06:07.290Z,38.25
2023-04-05T20:08:39.268Z,40.80
2023-04-05T20:11:08.030Z,40.33
2023-04-05T20:13:39.804Z,40.42
2023-04-05T20:16:08.046Z,50.70
2023-04-05T20:18:35.551Z,40.23
2023-04-05T20:21:02.877Z,40.05
2023-04-05T20:23:31.061Z,46.00
2023-04-05T20:25:58.407Z,38.13
2023-04-05T20:28:33.478Z,40.13
2023-04-05T20:31:01.141Z,45.85
2023-04-05T20:33:47.414Z,46.63
2023-04-05T20:36:16.786Z,42.13
2023-04-05T20:41:13.120Z,42.47
2023-04-05T20:43:41.750Z,43.70
2023-04-05T20:46:09.470Z,46.25
2023-04-05T20:48:37.453Z,48.28
2023-04-05T20:51:06.513Z,47.42
2023-04-05T20:53:34.241Z,43.65
2023-04-05T20:56:01.751Z,48.05
2023-04-05T20:58:29.268Z,50.72
2023-04-05T21:00:57.515Z,52.13
2023-04-05T21:03:24.946Z,44.45
2023-04-05T21:05:52.346Z,46.30
2023-04-05T21:08:19.593Z,49.50
2023-04-05T21:10:46.920Z,51.33
2023-04-05T21:13:14.243Z,48.92
2023-04-05T21:15:41.599Z,47.25
2023-04-05T21:18:10.261Z,51.65
2023-04-05T21:20:37.735Z,36.22
2023-04-05T21:23:05.202Z,49.13
2023-04-05T21:25:32.842Z,43.47
2023-04-05T21:28:03.127Z,48.85
2023-04-05T21:30:30.609Z,48.25
2023-04-05T21:32:57.941Z,43.38
2023-04-05T21:35:25.281Z,48.75
2023-04-05T21:37:52.546Z,48.65
2023-04-05T21:40:19.877Z,49.95
2023-04-05T21:42:47.273Z,51.40
2023-04-05T21:45:14.698Z,46.00
2023-04-05T21:47:42.047Z,44.20
2023-04-05T21:50:09.688Z,50.00
2023-04-05T21:52:37.473Z,53.08
2023-04-05T21:55:05.505Z,44.65
2023-04-05T21:57:36.156Z,51.80
2023-04-05T22:00:10.916Z,52.75
2023-04-05T22:02:40.892Z,50.90
2023-04-05T22:05:08.763Z,50.75
2023-04-05T22:07:36.096Z,50.03
2023-04-05T22:10:04.094Z,55.10
2023-04-05T22:12:31.463Z,49.30
2023-04-05T22:14:58.846Z,53.63
2023-04-05T22:17:26.492Z,54.40
2023-04-05T22:19:53.850Z,51.22
2023-04-05T22:22:21.214Z,47.22
2023-04-05T22:24:48.994Z,61.00
2023-04-05T22:27:16.274Z,57.03
2023-04-05T22:29:43.501Z,52.85
2023-04-05T22:32:11.195Z,54.83
2023-04-05T22:34:38.490Z,56.03
2023-04-05T22:37:05.959Z,54.38
2023-04-05T22:39:33.168Z,55.58
2023-04-05T22:42:00.457Z,51.67
2023-04-05T22:44:27.722Z,56.65
2023-04-05T22:46:55.025Z,60.55
2023-04-05T22:49:22.248Z,60.90
2023-04-05T22:51:49.529Z,57.47
2023-04-05T22:54:16.979Z,51.78
2023-04-05T22:56:44.274Z,62.47
2023-04-05T22:59:11.767Z,57.88
2023-04-05T23:01:39.165Z,55.38
2023-04-05T23:04:06.874Z,53.95
2023-04-05T23:06:34.386Z,54.15
2023-04-05T23:09:04.221Z,47.55
2023-04-05T23:11:31.581Z,52.95
2023-04-05T23:13:58.812Z,53.20
2023-04-05T23:16:26.209Z,55.97
2023-04-05T23:18:53.581Z,45.17
2023-04-05T23:21:20.997Z,43.83
2023-04-05T23:23:48.382Z,44.95
2023-04-05T23:26:15.765Z,38.72
2023-04-05T23:28:43.075Z,45.78
2023-04-05T23:31:10.367Z,41.75
2023-04-05T23:33:37.718Z,35.80
2023-04-05T23:36:05.188Z,41.67
2023-04-05T23:38:32.566Z,41.50
2023-04-05T23:40:59.845Z,36.28
2023-04-05T23:43:27.161Z,34.70
2023-04-05T23:45:54.450Z,32.42
2023-04-05T23:48:21.754Z,34.70
2023-04-05T23:50:49.078Z,30.08
2023-04-05T23:53:16.309Z,30.58
2023-04-05T23:55:43.582Z,33.53
2023-04-05T23:58:10.824Z,30.83
